Ara Antwerpen — ZDPG8 — position and weather

sailwx.info

Track history (hours):
 
Tides and Currents Weather Stations Pressure Air Temp Water Temp Dewpoint Dewpoint Depression Visibility Wind Speed Wind Dir Waves Ship Positions

Ara Antwerpen

Last reported at 2017-Nov-23 03:30 UTC. Time now 2017-Nov-23 03:51 UTC.
Position N 60°25' E 026°55'.

Length 145 m; draft 5.4 m.

Type: Cargo ship. MMSI: 236670000.

Date/timePositionNaut miles runAvg speedWind from/ knotsBaromVisibWave heightAir tempDewpointWater temp
2017-Nov-23 03:30N 60°25' E 026°55'0 0.0
2017-Nov-23 03:00N 60°25' E 026°55'0 0.0
2017-Nov-23 02:31N 60°25' E 026°55'0 0.0
2017-Nov-23 02:00N 60°25' E 026°55'0 0.0
2017-Nov-23 01:30N 60°25' E 026°55'0 0.0
2017-Nov-23 01:00N 60°25' E 026°55'0 0.0
2017-Nov-23 00:31N 60°25' E 026°55'0 0.0
2017-Nov-23 00:00N 60°25' E 026°55'0 0.0
2017-Nov-22 23:30N 60°25' E 026°55'0 0.0
2017-Nov-22 23:00N 60°25' E 026°55'0 0.0
2017-Nov-22 22:30N 60°25' E 026°55'0 0.0
2017-Nov-22 22:00N 60°25' E 026°55'0 0.0
2017-Nov-22 21:30N 60°25' E 026°55'0 0.0
2017-Nov-22 21:00N 60°25' E 026°55'0 0.0
2017-Nov-22 20:30N 60°25' E 026°55'0 0.0
2017-Nov-22 20:00N 60°25' E 026°55'0 0.0
2017-Nov-22 19:30N 60°25' E 026°55'  
2017-Nov-19 06:43N 56°03' E 016°46'211.2
2017-Nov-19 06:30N 56°02' E 016°43'611.2
2017-Nov-19 06:00N 55°58' E 016°35'611.3
2017-Nov-19 05:30N 55°56' E 016°26'611.3
2017-Nov-19 05:00N 55°53' E 016°17'611.4
2017-Nov-19 04:30N 55°50' E 016°08'611.4
2017-Nov-19 04:00N 55°47' E 015°59'611.5
2017-Nov-19 03:30N 55°44' E 015°51'611.4
2017-Nov-19 03:00N 55°41' E 015°42'611.5
2017-Nov-19 02:30N 55°38' E 015°33'611.6
2017-Nov-19 02:00N 55°36' E 015°24'611.6
2017-Nov-19 01:30N 55°33' E 015°15'611.5
2017-Nov-19 01:00N 55°30' E 015°06'611.6
2017-Nov-19 00:31N 55°28' E 014°57'611.6
2017-Nov-19 00:00N 55°25' E 014°48'611.3
2017-Nov-18 23:30N 55°23' E 014°39'611.2
2017-Nov-18 23:00N 55°18' E 014°32'510.8
2017-Nov-18 22:30N 55°14' E 014°26'510.8
2017-Nov-18 22:00N 55°10' E 014°20'611.0
2017-Nov-18 21:29N 55°06' E 014°13'611.0
2017-Nov-18 20:59N 55°02' E 014°07'1811.3
2017-Nov-18 19:21N 54°55' E 013°37'3611.3
2017-Nov-18 16:10N 54°40' E 012°40'211.5
2017-Nov-18 16:01N 54°39' E 012°38'711.5
2017-Nov-18 15:21N 54°35' E 012°27'411.5
2017-Nov-18 15:00N 54°33' E 012°21'611.1
2017-Nov-18 14:29N 54°28' E 012°15'1810.9
2017-Nov-18 12:49N 54°26' E 011°44'412.1
2017-Nov-18 12:30N 54°27' E 011°38'611.9
2017-Nov-18 12:00N 54°30' E 011°28'612.0
2017-Nov-18 11:29N 54°32' E 011°19'612.5
2017-Nov-18 11:00N 54°35' E 011°09'612.9
2017-Nov-18 10:30N 54°35' E 010°58'612.0
2017-Nov-18 10:00N 54°34' E 010°48'612.4
2017-Nov-18 09:30N 54°33' E 010°37'611.8
2017-Nov-18 09:00N 54°31' E 010°27'23 6.1
2017-Nov-18 05:12N 54°22' E 009°51'2 8.2
2017-Nov-18 05:00N 54°22' E 009°48'4 8.2
2017-Nov-18 04:31N 54°19' E 009°43'4 7.4
2017-Nov-18 04:00N 54°17' E 009°38'3 6.6
2017-Nov-18 03:30N 54°14' E 009°36'4 8.3
2017-Nov-18 03:00N 54°11' E 009°30'4 8.4
2017-Nov-18 02:30N 54°10' E 009°24'3 5.2
2017-Nov-18 02:01N 54°08' E 009°20'4 8.6
2017-Nov-18 01:30N 54°04' E 009°19'4 8.9
2017-Nov-18 01:00N 53°60' E 009°17'4 8.8
2017-Nov-18 00:31N 53°56' E 009°13'3 7.0
2017-Nov-18 00:00N 53°54' E 009°09'0 0.0
2017-Nov-17 23:31N 53°54' E 009°09'2 4.3
2017-Nov-17 23:01N 53°53' E 009°05'714.3
2017-Nov-17 22:30N 53°50' E 008°54'713.9
2017-Nov-17 22:00N 53°53' E 008°43'714.3
2017-Nov-17 21:30N 53°58' E 008°34'815.8
2017-Nov-17 21:00N 53°59' E 008°21'714.2
2017-Nov-17 20:30N 53°59' E 008°09'714.5
2017-Nov-17 20:00N 53°58' E 007°57'1114.3
2017-Nov-17 19:15N 53°55' E 007°39'11712.2
2017-Nov-17 09:38N 53°13' E 004°35'211.7
2017-Nov-17 09:29N 53°11' E 004°33'611.7
2017-Nov-17 08:59N 53°06' E 004°29'611.8
2017-Nov-17 08:30N 53°01' E 004°24'611.9
2017-Nov-17 08:00N 52°56' E 004°20'611.8
2017-Nov-17 07:29N 52°51' E 004°15'611.8
2017-Nov-17 06:58N 52°45' E 004°10'510.6
2017-Nov-17 06:29N 52°40' E 004°12'612.5
2017-Nov-17 06:00N 52°36' E 004°18'612.5
2017-Nov-17 05:30N 52°31' E 004°26'510.6
2017-Nov-17 05:01N 52°28' E 004°33'2 4.9
2017-Nov-17 04:30N 52°28' E 004°37'0 0.9
2017-Nov-17 04:00N 52°28' E 004°37'3 5.6
2017-Nov-17 03:31N 52°27' E 004°41'5 9.8
2017-Nov-17 03:00N 52°25' E 004°49'2 4.4
2017-Nov-17 02:30N 52°24' E 004°52'0 0.0
2017-Nov-17 02:00N 52°24' E 004°52'0 0.0
2017-Nov-17 01:30N 52°24' E 004°52'0 0.0
2017-Nov-17 01:00N 52°24' E 004°52'0 0.0
2017-Nov-17 00:30N 52°24' E 004°52'0 0.0
2017-Nov-17 00:00N 52°24' E 004°52'0 0.0
2017-Nov-16 23:30N 52°24' E 004°52'0 0.0
2017-Nov-16 23:00N 52°24' E 004°52'0 0.0
2017-Nov-16 22:27N 52°24' E 004°52'0 0.0
2017-Nov-16 22:00N 52°24' E 004°52'0 0.0
2017-Nov-16 21:27N 52°24' E 004°52'0 0.0
2017-Nov-16 21:00N 52°24' E 004°52'0 0.0
2017-Nov-16 20:30N 52°24' E 004°52'0 0.0
2017-Nov-16 19:57N 52°24' E 004°52'0 0.0
2017-Nov-16 19:30N 52°24' E 004°52'0 0.0
2017-Nov-16 18:54N 52°24' E 004°52'0 0.0
2017-Nov-16 18:28N 52°24' E 004°52'0 0.0
2017-Nov-16 17:52N 52°24' E 004°52'0 0.0
2017-Nov-16 17:28N 52°24' E 004°52'0 0.0
2017-Nov-16 16:55N 52°24' E 004°52'0 0.0
2017-Nov-16 16:28N 52°24' E 004°52'0 0.0
2017-Nov-16 15:58N 52°24' E 004°52'0 0.0
2017-Nov-16 15:25N 52°24' E 004°52'0 0.0
2017-Nov-16 14:58N 52°24' E 004°52'0 0.0
2017-Nov-16 14:28N 52°24' E 004°52'0 0.0
2017-Nov-16 14:00N 52°24' E 004°52'0 0.0
2017-Nov-16 13:31N 52°24' E 004°52'0 0.0
2017-Nov-16 12:58N 52°24' E 004°52'0 0.0
2017-Nov-16 12:28N 52°24' E 004°52'0 0.0
2017-Nov-16 11:58N 52°24' E 004°52'0 0.0
2017-Nov-16 11:31N 52°24' E 004°52'0 0.0
2017-Nov-16 11:01N 52°24' E 004°52'0 0.0
2017-Nov-16 10:28N 52°24' E 004°52'0 0.0
2017-Nov-16 09:52N 52°24' E 004°52'0 0.0
2017-Nov-16 09:31N 52°24' E 004°52'0 0.0
2017-Nov-16 08:55N 52°24' E 004°52'0 0.0
2017-Nov-16 08:31N 52°24' E 004°52'0 0.0
2017-Nov-16 08:01N 52°24' E 004°52'0 0.0
2017-Nov-16 07:28N 52°24' E 004°52'0 0.0
2017-Nov-16 06:55N 52°24' E 004°52'0 0.0
2017-Nov-16 06:31N 52°24' E 004°52'0 0.0
2017-Nov-16 06:01N 52°24' E 004°52'0 0.0
2017-Nov-16 05:28N 52°24' E 004°52'0 0.0
2017-Nov-16 04:58N 52°24' E 004°52'0 0.0
2017-Nov-16 04:31N 52°24' E 004°52'0 0.0
2017-Nov-16 04:01N 52°24' E 004°52'0 0.0
2017-Nov-16 03:22N 52°24' E 004°52'0 0.0
2017-Nov-16 03:01N 52°24' E 004°52'0 0.0
2017-Nov-16 02:31N 52°24' E 004°52'0 0.0
2017-Nov-16 01:58N 52°24' E 004°52'0 0.0
2017-Nov-16 01:31N 52°24' E 004°52'0 0.0
2017-Nov-16 01:01N 52°24' E 004°52'0 0.0
2017-Nov-16 00:31N 52°24' E 004°52'0 0.0
2017-Nov-15 23:55N 52°24' E 004°52'0 0.0
2017-Nov-15 23:28N 52°24' E 004°52'0 0.0
2017-Nov-15 22:58N 52°24' E 004°52'0 0.0
2017-Nov-15 22:31N 52°24' E 004°52'0 0.0
2017-Nov-15 22:01N 52°24' E 004°52'0 0.0
2017-Nov-15 21:31N 52°24' E 004°52'0 0.0
2017-Nov-15 20:58N 52°24' E 004°52'0 0.0
2017-Nov-15 20:31N 52°24' E 004°52'0 0.0
2017-Nov-15 20:01N 52°24' E 004°52'0 0.0
2017-Nov-15 19:25N 52°24' E 004°52'0 0.0
2017-Nov-15 19:00N 52°24' E 004°52'0 0.0
2017-Nov-15 18:29N 52°24' E 004°52'0 0.0
2017-Nov-15 17:56N 52°24' E 004°52'0 0.0
2017-Nov-15 17:29N 52°24' E 004°52'0 0.0
2017-Nov-15 16:59N 52°24' E 004°52'0 0.0
2017-Nov-15 16:29N 52°24' E 004°52'0 0.0
2017-Nov-15 15:59N 52°24' E 004°52'0 0.0
2017-Nov-15 15:29N 52°24' E 004°52'0 0.0
2017-Nov-15 14:59N 52°24' E 004°52'0 0.0
2017-Nov-15 14:29N 52°24' E 004°52'0 0.0
2017-Nov-15 13:59N 52°24' E 004°52'0 0.0
2017-Nov-15 13:29N 52°24' E 004°52'0 0.0
2017-Nov-15 12:56N 52°24' E 004°52'0 0.0
2017-Nov-15 12:29N 52°24' E 004°52'0 0.0
2017-Nov-15 11:59N 52°24' E 004°52'0 0.0
2017-Nov-15 11:26N 52°24' E 004°52'0 0.0
2017-Nov-15 10:59N 52°24' E 004°52'0 0.0
2017-Nov-15 10:29N 52°24' E 004°52'0 0.0
2017-Nov-15 09:56N 52°24' E 004°52'0 0.0
2017-Nov-15 09:26N 52°24' E 004°52'0 0.0
2017-Nov-15 08:53N 52°24' E 004°52'0 0.0
2017-Nov-15 08:29N 52°24' E 004°52'0 0.0
2017-Nov-15 07:59N 52°24' E 004°52'0 0.0
2017-Nov-15 07:29N 52°24' E 004°52'0 0.0
2017-Nov-15 06:59N 52°24' E 004°52'0 0.0
2017-Nov-15 06:29N 52°24' E 004°52'0 0.0
2017-Nov-15 05:59N 52°24' E 004°52'0 0.0
2017-Nov-15 05:26N 52°24' E 004°52'0 0.0
2017-Nov-15 04:59N 52°24' E 004°52'0 0.0
2017-Nov-15 04:26N 52°24' E 004°52'0 0.0
2017-Nov-15 03:59N 52°24' E 004°52'0 0.0
2017-Nov-15 03:23N 52°24' E 004°52'0 0.0
2017-Nov-15 02:59N 52°24' E 004°52'0 0.0
2017-Nov-15 02:23N 52°24' E 004°52'0 0.0
2017-Nov-15 02:00N 52°24' E 004°52'0 0.5
2017-Nov-15 01:31N 52°25' E 004°52'5 9.0
2017-Nov-15 01:01N 52°26' E 004°45'5 9.4
2017-Nov-15 00:30N 52°28' E 004°38'1 2.2
2017-Nov-15 00:00N 52°28' E 004°37'2 3.6
2017-Nov-14 23:30N 52°28' E 004°34'510.2
2017-Nov-14 23:00N 52°29' E 004°25'611.4
2017-Nov-14 22:30N 52°29' E 004°16'611.2
2017-Nov-14 22:00N 52°29' E 004°07'611.2
2017-Nov-14 21:31N 52°27' E 003°58'610.9
2017-Nov-14 21:00N 52°26' E 003°49'610.8
2017-Nov-14 20:30N 52°24' E 003°40'510.5
2017-Nov-14 19:59N 52°22' E 003°32'611.0
2017-Nov-14 19:29N 52°18' E 003°26'510.9
2017-Nov-14 19:00N 52°15' E 003°20'611.2
2017-Nov-14 18:30N 52°11' E 003°13'611.1
2017-Nov-14 17:58N 52°07' E 003°06'511.1
2017-Nov-14 17:30N 52°03' E 003°00'511.0
2017-Nov-14 17:00N 51°59' E 002°54'611.1
2017-Nov-14 16:29N 51°55' E 002°49'611.4
2017-Nov-14 16:00N 51°50' E 002°43'711.6
2017-Nov-14 15:26N 51°45' E 002°36'511.8
2017-Nov-14 14:59N 51°41' E 002°31'612.2
2017-Nov-14 14:30N 51°36' E 002°25'712.4
2017-Nov-14 13:53N 51°30' E 002°18'512.7
2017-Nov-14 13:30N 51°26' E 002°14'613.0
2017-Nov-14 13:01N 51°20' E 002°09'713.2
2017-Nov-14 12:30N 51°15' E 002°03'713.5
2017-Nov-14 12:00N 51°11' E 001°55'713.7
2017-Nov-14 11:30N 51°06' E 001°46'714.2
2017-Nov-14 11:00N 51°01' E 001°38'714.5
2017-Nov-14 10:30N 50°56' E 001°30'714.4
2017-Nov-14 09:59N 50°49' E 001°24'1013.9
2017-Nov-14 09:17N 50°41' E 001°16'513.6
2017-Nov-14 08:56N 50°38' E 001°10'613.4
2017-Nov-14 08:27N 50°34' E 001°02'713.3
2017-Nov-14 07:56N 50°31' E 000°53'713.0
2017-Nov-14 07:25N 50°28' E 000°43'513.4
2017-Nov-14 07:00N 50°26' E 000°35'713.6
2017-Nov-14 06:29N 50°25' E 000°24'713.9
2017-Nov-14 05:59N 50°23' E 000°14'714.2
2017-Nov-14 05:30N 50°21' E 000°04'714.2
2017-Nov-14 05:00N 50°19' W 000°07'714.2
2017-Nov-14 04:31N 50°17' W 000°18'714.2
2017-Nov-14 04:00N 50°15' W 000°29'  
Track history (hours):
 
Tides and Currents Weather Stations Pressure Air Temp Water Temp Dewpoint Dewpoint Depression Visibility Wind Speed Wind Dir Waves Ship Positions

Ara Antwerpen

Last reported at 2017-Nov-23 03:30 UTC. Time now 2017-Nov-23 03:51 UTC.
Position N 60°25' E 026°55'.

Length 145 m; draft 5.4 m.

Type: Cargo ship. MMSI: 236670000.

Date/timePositionNaut miles runAvg speedWind from/ knotsBaromVisibWave heightAir tempDewpointWater temp
2017-Nov-23 03:30N 60°25' E 026°55'0 0.0
2017-Nov-23 03:00N 60°25' E 026°55'0 0.0
2017-Nov-23 02:31N 60°25' E 026°55'0 0.0
2017-Nov-23 02:00N 60°25' E 026°55'0 0.0
2017-Nov-23 01:30N 60°25' E 026°55'0 0.0
2017-Nov-23 01:00N 60°25' E 026°55'0 0.0
2017-Nov-23 00:31N 60°25' E 026°55'0 0.0
2017-Nov-23 00:00N 60°25' E 026°55'0 0.0
2017-Nov-22 23:30N 60°25' E 026°55'0 0.0
2017-Nov-22 23:00N 60°25' E 026°55'0 0.0
2017-Nov-22 22:30N 60°25' E 026°55'0 0.0
2017-Nov-22 22:00N 60°25' E 026°55'0 0.0
2017-Nov-22 21:30N 60°25' E 026°55'0 0.0
2017-Nov-22 21:00N 60°25' E 026°55'0 0.0
2017-Nov-22 20:30N 60°25' E 026°55'0 0.0
2017-Nov-22 20:00N 60°25' E 026°55'0 0.0
2017-Nov-22 19:30N 60°25' E 026°55'  
2017-Nov-19 06:43N 56°03' E 016°46'211.2
2017-Nov-19 06:30N 56°02' E 016°43'611.2
2017-Nov-19 06:00N 55°58' E 016°35'611.3
2017-Nov-19 05:30N 55°56' E 016°26'611.3
2017-Nov-19 05:00N 55°53' E 016°17'611.4
2017-Nov-19 04:30N 55°50' E 016°08'611.4
2017-Nov-19 04:00N 55°47' E 015°59'611.5
2017-Nov-19 03:30N 55°44' E 015°51'611.4
2017-Nov-19 03:00N 55°41' E 015°42'611.5
2017-Nov-19 02:30N 55°38' E 015°33'611.6
2017-Nov-19 02:00N 55°36' E 015°24'611.6
2017-Nov-19 01:30N 55°33' E 015°15'611.5
2017-Nov-19 01:00N 55°30' E 015°06'611.6
2017-Nov-19 00:31N 55°28' E 014°57'611.6
2017-Nov-19 00:00N 55°25' E 014°48'611.3
2017-Nov-18 23:30N 55°23' E 014°39'611.2
2017-Nov-18 23:00N 55°18' E 014°32'510.8
2017-Nov-18 22:30N 55°14' E 014°26'510.8
2017-Nov-18 22:00N 55°10' E 014°20'611.0
2017-Nov-18 21:29N 55°06' E 014°13'611.0
2017-Nov-18 20:59N 55°02' E 014°07'1811.3
2017-Nov-18 19:21N 54°55' E 013°37'3611.3
2017-Nov-18 16:10N 54°40' E 012°40'211.5
2017-Nov-18 16:01N 54°39' E 012°38'711.5
2017-Nov-18 15:21N 54°35' E 012°27'411.5
2017-Nov-18 15:00N 54°33' E 012°21'611.1
2017-Nov-18 14:29N 54°28' E 012°15'1810.9
2017-Nov-18 12:49N 54°26' E 011°44'412.1
2017-Nov-18 12:30N 54°27' E 011°38'611.9
2017-Nov-18 12:00N 54°30' E 011°28'612.0
2017-Nov-18 11:29N 54°32' E 011°19'612.5
2017-Nov-18 11:00N 54°35' E 011°09'612.9
2017-Nov-18 10:30N 54°35' E 010°58'612.0
2017-Nov-18 10:00N 54°34' E 010°48'612.4
2017-Nov-18 09:30N 54°33' E 010°37'611.8
2017-Nov-18 09:00N 54°31' E 010°27'23 6.1
2017-Nov-18 05:12N 54°22' E 009°51'2 8.2
2017-Nov-18 05:00N 54°22' E 009°48'4 8.2
2017-Nov-18 04:31N 54°19' E 009°43'4 7.4
2017-Nov-18 04:00N 54°17' E 009°38'3 6.6
2017-Nov-18 03:30N 54°14' E 009°36'4 8.3
2017-Nov-18 03:00N 54°11' E 009°30'4 8.4
2017-Nov-18 02:30N 54°10' E 009°24'3 5.2
2017-Nov-18 02:01N 54°08' E 009°20'4 8.6
2017-Nov-18 01:30N 54°04' E 009°19'4 8.9
2017-Nov-18 01:00N 53°60' E 009°17'4 8.8
2017-Nov-18 00:31N 53°56' E 009°13'3 7.0
2017-Nov-18 00:00N 53°54' E 009°09'0 0.0
2017-Nov-17 23:31N 53°54' E 009°09'2 4.3
2017-Nov-17 23:01N 53°53' E 009°05'714.3
2017-Nov-17 22:30N 53°50' E 008°54'713.9
2017-Nov-17 22:00N 53°53' E 008°43'714.3
2017-Nov-17 21:30N 53°58' E 008°34'815.8
2017-Nov-17 21:00N 53°59' E 008°21'714.2
2017-Nov-17 20:30N 53°59' E 008°09'714.5
2017-Nov-17 20:00N 53°58' E 007°57'1114.3
2017-Nov-17 19:15N 53°55' E 007°39'11712.2
2017-Nov-17 09:38N 53°13' E 004°35'211.7
2017-Nov-17 09:29N 53°11' E 004°33'611.7
2017-Nov-17 08:59N 53°06' E 004°29'611.8
2017-Nov-17 08:30N 53°01' E 004°24'611.9
2017-Nov-17 08:00N 52°56' E 004°20'611.8
2017-Nov-17 07:29N 52°51' E 004°15'611.8
2017-Nov-17 06:58N 52°45' E 004°10'510.6
2017-Nov-17 06:29N 52°40' E 004°12'612.5
2017-Nov-17 06:00N 52°36' E 004°18'612.5
2017-Nov-17 05:30N 52°31' E 004°26'510.6
2017-Nov-17 05:01N 52°28' E 004°33'2 4.9
2017-Nov-17 04:30N 52°28' E 004°37'0 0.9
2017-Nov-17 04:00N 52°28' E 004°37'3 5.6
2017-Nov-17 03:31N 52°27' E 004°41'5 9.8
2017-Nov-17 03:00N 52°25' E 004°49'2 4.4
2017-Nov-17 02:30N 52°24' E 004°52'0 0.0
2017-Nov-17 02:00N 52°24' E 004°52'0 0.0
2017-Nov-17 01:30N 52°24' E 004°52'0 0.0
2017-Nov-17 01:00N 52°24' E 004°52'0 0.0
2017-Nov-17 00:30N 52°24' E 004°52'0 0.0
2017-Nov-17 00:00N 52°24' E 004°52'0 0.0
2017-Nov-16 23:30N 52°24' E 004°52'0 0.0
2017-Nov-16 23:00N 52°24' E 004°52'0 0.0
2017-Nov-16 22:27N 52°24' E 004°52'0 0.0
2017-Nov-16 22:00N 52°24' E 004°52'0 0.0
2017-Nov-16 21:27N 52°24' E 004°52'0 0.0
2017-Nov-16 21:00N 52°24' E 004°52'0 0.0
2017-Nov-16 20:30N 52°24' E 004°52'0 0.0
2017-Nov-16 19:57N 52°24' E 004°52'0 0.0
2017-Nov-16 19:30N 52°24' E 004°52'0 0.0
2017-Nov-16 18:54N 52°24' E 004°52'0 0.0
2017-Nov-16 18:28N 52°24' E 004°52'0 0.0
2017-Nov-16 17:52N 52°24' E 004°52'0 0.0
2017-Nov-16 17:28N 52°24' E 004°52'0 0.0
2017-Nov-16 16:55N 52°24' E 004°52'0 0.0
2017-Nov-16 16:28N 52°24' E 004°52'0 0.0
2017-Nov-16 15:58N 52°24' E 004°52'0 0.0
2017-Nov-16 15:25N 52°24' E 004°52'0 0.0
2017-Nov-16 14:58N 52°24' E 004°52'0 0.0
2017-Nov-16 14:28N 52°24' E 004°52'0 0.0
2017-Nov-16 14:00N 52°24' E 004°52'0 0.0
2017-Nov-16 13:31N 52°24' E 004°52'0 0.0
2017-Nov-16 12:58N 52°24' E 004°52'0 0.0
2017-Nov-16 12:28N 52°24' E 004°52'0 0.0
2017-Nov-16 11:58N 52°24' E 004°52'0 0.0
2017-Nov-16 11:31N 52°24' E 004°52'0 0.0
2017-Nov-16 11:01N 52°24' E 004°52'0 0.0
2017-Nov-16 10:28N 52°24' E 004°52'0 0.0
2017-Nov-16 09:52N 52°24' E 004°52'0 0.0
2017-Nov-16 09:31N 52°24' E 004°52'0 0.0
2017-Nov-16 08:55N 52°24' E 004°52'0 0.0
2017-Nov-16 08:31N 52°24' E 004°52'0 0.0
2017-Nov-16 08:01N 52°24' E 004°52'0 0.0
2017-Nov-16 07:28N 52°24' E 004°52'0 0.0
2017-Nov-16 06:55N 52°24' E 004°52'0 0.0
2017-Nov-16 06:31N 52°24' E 004°52'0 0.0
2017-Nov-16 06:01N 52°24' E 004°52'0 0.0
2017-Nov-16 05:28N 52°24' E 004°52'0 0.0
2017-Nov-16 04:58N 52°24' E 004°52'0 0.0
2017-Nov-16 04:31N 52°24' E 004°52'0 0.0
2017-Nov-16 04:01N 52°24' E 004°52'0 0.0
2017-Nov-16 03:22N 52°24' E 004°52'0 0.0
2017-Nov-16 03:01N 52°24' E 004°52'0 0.0
2017-Nov-16 02:31N 52°24' E 004°52'0 0.0
2017-Nov-16 01:58N 52°24' E 004°52'0 0.0
2017-Nov-16 01:31N 52°24' E 004°52'0 0.0
2017-Nov-16 01:01N 52°24' E 004°52'0 0.0
2017-Nov-16 00:31N 52°24' E 004°52'0 0.0
2017-Nov-15 23:55N 52°24' E 004°52'0 0.0
2017-Nov-15 23:28N 52°24' E 004°52'0 0.0
2017-Nov-15 22:58N 52°24' E 004°52'0 0.0
2017-Nov-15 22:31N 52°24' E 004°52'0 0.0
2017-Nov-15 22:01N 52°24' E 004°52'0 0.0
2017-Nov-15 21:31N 52°24' E 004°52'0 0.0
2017-Nov-15 20:58N 52°24' E 004°52'0 0.0
2017-Nov-15 20:31N 52°24' E 004°52'0 0.0
2017-Nov-15 20:01N 52°24' E 004°52'0 0.0
2017-Nov-15 19:25N 52°24' E 004°52'0 0.0
2017-Nov-15 19:00N 52°24' E 004°52'0 0.0
2017-Nov-15 18:29N 52°24' E 004°52'0 0.0
2017-Nov-15 17:56N 52°24' E 004°52'0 0.0
2017-Nov-15 17:29N 52°24' E 004°52'0 0.0
2017-Nov-15 16:59N 52°24' E 004°52'0 0.0
2017-Nov-15 16:29N 52°24' E 004°52'0 0.0
2017-Nov-15 15:59N 52°24' E 004°52'0 0.0
2017-Nov-15 15:29N 52°24' E 004°52'0 0.0
2017-Nov-15 14:59N 52°24' E 004°52'0 0.0
2017-Nov-15 14:29N 52°24' E 004°52'0 0.0
2017-Nov-15 13:59N 52°24' E 004°52'0 0.0
2017-Nov-15 13:29N 52°24' E 004°52'0 0.0
2017-Nov-15 12:56N 52°24' E 004°52'0 0.0
2017-Nov-15 12:29N 52°24' E 004°52'0 0.0
2017-Nov-15 11:59N 52°24' E 004°52'0 0.0
2017-Nov-15 11:26N 52°24' E 004°52'0 0.0
2017-Nov-15 10:59N 52°24' E 004°52'0 0.0
2017-Nov-15 10:29N 52°24' E 004°52'0 0.0
2017-Nov-15 09:56N 52°24' E 004°52'0 0.0
2017-Nov-15 09:26N 52°24' E 004°52'0 0.0
2017-Nov-15 08:53N 52°24' E 004°52'0 0.0
2017-Nov-15 08:29N 52°24' E 004°52'0 0.0
2017-Nov-15 07:59N 52°24' E 004°52'0 0.0
2017-Nov-15 07:29N 52°24' E 004°52'0 0.0
2017-Nov-15 06:59N 52°24' E 004°52'0 0.0
2017-Nov-15 06:29N 52°24' E 004°52'0 0.0
2017-Nov-15 05:59N 52°24' E 004°52'0 0.0
2017-Nov-15 05:26N 52°24' E 004°52'0 0.0
2017-Nov-15 04:59N 52°24' E 004°52'0 0.0
2017-Nov-15 04:26N 52°24' E 004°52'0 0.0
2017-Nov-15 03:59N 52°24' E 004°52'0 0.0
2017-Nov-15 03:23N 52°24' E 004°52'0 0.0
2017-Nov-15 02:59N 52°24' E 004°52'0 0.0
2017-Nov-15 02:23N 52°24' E 004°52'0 0.0
2017-Nov-15 02:00N 52°24' E 004°52'0 0.5
2017-Nov-15 01:31N 52°25' E 004°52'5 9.0
2017-Nov-15 01:01N 52°26' E 004°45'5 9.4
2017-Nov-15 00:30N 52°28' E 004°38'1 2.2
2017-Nov-15 00:00N 52°28' E 004°37'2 3.6
2017-Nov-14 23:30N 52°28' E 004°34'510.2
2017-Nov-14 23:00N 52°29' E 004°25'611.4
2017-Nov-14 22:30N 52°29' E 004°16'611.2
2017-Nov-14 22:00N 52°29' E 004°07'611.2
2017-Nov-14 21:31N 52°27' E 003°58'610.9
2017-Nov-14 21:00N 52°26' E 003°49'610.8
2017-Nov-14 20:30N 52°24' E 003°40'510.5
2017-Nov-14 19:59N 52°22' E 003°32'611.0
2017-Nov-14 19:29N 52°18' E 003°26'510.9
2017-Nov-14 19:00N 52°15' E 003°20'611.2
2017-Nov-14 18:30N 52°11' E 003°13'611.1
2017-Nov-14 17:58N 52°07' E 003°06'511.1
2017-Nov-14 17:30N 52°03' E 003°00'511.0
2017-Nov-14 17:00N 51°59' E 002°54'611.1
2017-Nov-14 16:29N 51°55' E 002°49'611.4
2017-Nov-14 16:00N 51°50' E 002°43'711.6
2017-Nov-14 15:26N 51°45' E 002°36'511.8
2017-Nov-14 14:59N 51°41' E 002°31'612.2
2017-Nov-14 14:30N 51°36' E 002°25'712.4
2017-Nov-14 13:53N 51°30' E 002°18'512.7
2017-Nov-14 13:30N 51°26' E 002°14'613.0
2017-Nov-14 13:01N 51°20' E 002°09'713.2
2017-Nov-14 12:30N 51°15' E 002°03'713.5
2017-Nov-14 12:00N 51°11' E 001°55'713.7
2017-Nov-14 11:30N 51°06' E 001°46'714.2
2017-Nov-14 11:00N 51°01' E 001°38'714.5
2017-Nov-14 10:30N 50°56' E 001°30'714.4
2017-Nov-14 09:59N 50°49' E 001°24'1013.9
2017-Nov-14 09:17N 50°41' E 001°16'513.6
2017-Nov-14 08:56N 50°38' E 001°10'613.4
2017-Nov-14 08:27N 50°34' E 001°02'713.3
2017-Nov-14 07:56N 50°31' E 000°53'713.0
2017-Nov-14 07:25N 50°28' E 000°43'513.4
2017-Nov-14 07:00N 50°26' E 000°35'713.6
2017-Nov-14 06:29N 50°25' E 000°24'713.9
2017-Nov-14 05:59N 50°23' E 000°14'714.2
2017-Nov-14 05:30N 50°21' E 000°04'714.2
2017-Nov-14 05:00N 50°19' W 000°07'714.2
2017-Nov-14 04:31N 50°17' W 000°18'714.2
2017-Nov-14 04:00N 50°15' W 000°29'  

Dump ship's entire track history